sensor_id;sensor_type;location;lat;lon;timestamp;temperature;humidity
5779;DHT22;2916;49.798;10.022;2024-03-02T00:01:35;6.60;99.90
5779;DHT22;2916;49.798;10.022;2024-03-02T00:04:04;6.60;99.90
5779;DHT22;2916;49.798;10.022;2024-03-02T00:06:32;6.60;99.90
5779;DHT22;2916;49.798;10.022;2024-03-02T00:08:59;6.60;99.90
5779;DHT22;2916;49.798;10.022;2024-03-02T00:11:26;6.60;99.90
5779;DHT22;2916;49.798;10.022;2024-03-02T00:13:54;6.60;99.90
5779;DHT22;2916;49.798;10.022;2024-03-02T00:16:21;6.60;99.90
5779;DHT22;2916;49.798;10.022;2024-03-02T00:18:49;6.60;99.90
5779;DHT22;2916;49.798;10.022;2024-03-02T00:21:16;6.50;99.90
5779;DHT22;2916;49.798;10.022;2024-03-02T00:23:45;6.50;99.90
5779;DHT22;2916;49.798;10.022;2024-03-02T00:26:12;6.50;99.90
5779;DHT22;2916;49.798;10.022;2024-03-02T00:28:40;6.50;99.90
5779;DHT22;2916;49.798;10.022;2024-03-02T00:31:11;6.50;99.90
5779;DHT22;2916;49.798;10.022;2024-03-02T00:33:41;6.50;99.90
5779;DHT22;2916;49.798;10.022;2024-03-02T00:36:09;6.50;99.90
5779;DHT22;2916;49.798;10.022;2024-03-02T00:38:44;6.50;99.90
5779;DHT22;2916;49.798;10.022;2024-03-02T00:41:17;6.50;99.90
5779;DHT22;2916;49.798;10.022;2024-03-02T00:43:47;6.40;99.90
5779;DHT22;2916;49.798;10.022;2024-03-02T00:46:18;6.40;99.90
5779;DHT22;2916;49.798;10.022;2024-03-02T00:48:53;6.40;99.90
5779;DHT22;2916;49.798;10.022;2024-03-02T00:51:21;6.40;99.90
5779;DHT22;2916;49.798;10.022;2024-03-02T00:53:49;6.50;99.90
5779;DHT22;2916;49.798;10.022;2024-03-02T00:56:16;6.50;99.90
5779;DHT22;2916;49.798;10.022;2024-03-02T00:58:43;6.50;99.90
5779;DHT22;2916;49.798;10.022;2024-03-02T01:01:10;6.60;99.90
5779;DHT22;2916;49.798;10.022;2024-03-02T01:03:39;6.60;99.90
5779;DHT22;2916;49.798;10.022;2024-03-02T01:06:07;6.60;99.90
5779;DHT22;2916;49.798;10.022;2024-03-02T01:08:34;6.60;99.90
5779;DHT22;2916;49.798;10.022;2024-03-02T01:11:01;6.60;99.90
5779;DHT22;2916;49.798;10.022;2024-03-02T01:13:28;6.60;99.90
5779;DHT22;2916;49.798;10.022;2024-03-02T01:15:55;6.60;99.90
5779;DHT22;2916;49.798;10.022;2024-03-02T01:18:22;6.50;99.90
5779;DHT22;2916;49.798;10.022;2024-03-02T01:20:51;6.50;99.90
5779;DHT22;2916;49.798;10.022;2024-03-02T01:23:18;6.40;99.90
5779;DHT22;2916;49.798;10.022;2024-03-02T01:25:46;6.40;99.90
5779;DHT22;2916;49.798;10.022;2024-03-02T01:28:13;6.40;99.90
5779;DHT22;2916;49.798;10.022;2024-03-02T01:30:40;6.40;99.90
5779;DHT22;2916;49.798;10.022;2024-03-02T01:33:07;6.40;99.90
5779;DHT22;2916;49.798;10.022;2024-03-02T01:35:34;6.40;99.90
5779;DHT22;2916;49.798;10.022;2024-03-02T01:38:03;6.30;99.90
5779;DHT22;2916;49.798;10.022;2024-03-02T01:40:31;6.40;99.90
5779;DHT22;2916;49.798;10.022;2024-03-02T01:42:58;6.40;99.90
5779;DHT22;2916;49.798;10.022;2024-03-02T01:45:25;6.30;99.90
5779;DHT22;2916;49.798;10.022;2024-03-02T01:47:52;6.30;99.90
5779;DHT22;2916;49.798;10.022;2024-03-02T01:50:25;6.30;99.90
5779;DHT22;2916;49.798;10.022;2024-03-02T01:52:53;6.30;99.90
5779;DHT22;2916;49.798;10.022;2024-03-02T01:55:21;6.30;99.90
5779;DHT22;2916;49.798;10.022;2024-03-02T01:57:48;6.30;99.90
5779;DHT22;2916;49.798;10.022;2024-03-02T02:00:16;6.30;99.90
5779;DHT22;2916;49.798;10.022;2024-03-02T02:02:44;6.30;99.90
5779;DHT22;2916;49.798;10.022;2024-03-02T02:05:11;6.30;99.90
5779;DHT22;2916;49.798;10.022;2024-03-02T02:07:38;6.30;99.90
5779;DHT22;2916;49.798;10.022;2024-03-02T02:10:05;6.30;99.90
5779;DHT22;2916;49.798;10.022;2024-03-02T02:12:34;6.30;99.90
5779;DHT22;2916;49.798;10.022;2024-03-02T02:15:01;6.30;99.90
5779;DHT22;2916;49.798;10.022;2024-03-02T02:17:28;6.30;99.90
5779;DHT22;2916;49.798;10.022;2024-03-02T02:19:55;6.30;99.90
5779;DHT22;2916;49.798;10.022;2024-03-02T02:22:23;6.30;99.90
5779;DHT22;2916;49.798;10.022;2024-03-02T02:24:50;6.30;99.90
5779;DHT22;2916;49.798;10.022;2024-03-02T02:27:17;6.20;99.90
5779;DHT22;2916;49.798;10.022;2024-03-02T02:29:44;6.20;99.90
5779;DHT22;2916;49.798;10.022;2024-03-02T02:32:11;6.20;99.90
5779;DHT22;2916;49.798;10.022;2024-03-02T02:34:38;6.10;99.90
5779;DHT22;2916;49.798;10.022;2024-03-02T02:37:05;6.10;99.90
5779;DHT22;2916;49.798;10.022;2024-03-02T02:39:33;6.10;99.90
5779;DHT22;2916;49.798;10.022;2024-03-02T02:42:00;6.10;99.90
5779;DHT22;2916;49.798;10.022;2024-03-02T02:44:28;6.10;99.90
5779;DHT22;2916;49.798;10.022;2024-03-02T02:46:55;6.10;99.90
5779;DHT22;2916;49.798;10.022;2024-03-02T02:49:22;6.10;99.90
5779;DHT22;2916;49.798;10.022;2024-03-02T02:51:49;6.10;99.90
5779;DHT22;2916;49.798;10.022;2024-03-02T02:54:16;6.10;99.90
5779;DHT22;2916;49.798;10.022;2024-03-02T02:56:44;6.10;99.90
5779;DHT22;2916;49.798;10.022;2024-03-02T02:59:11;6.10;99.90
5779;DHT22;2916;49.798;10.022;2024-03-02T03:01:38;6.10;99.90
5779;DHT22;2916;49.798;10.022;2024-03-02T03:04:05;6.10;99.90
5779;DHT22;2916;49.798;10.022;2024-03-02T03:06:32;6.10;99.90
5779;DHT22;2916;49.798;10.022;2024-03-02T03:08:59;6.20;99.90
5779;DHT22;2916;49.798;10.022;2024-03-02T03:11:26;6.20;99.90
5779;DHT22;2916;49.798;10.022;2024-03-02T03:13:54;6.20;99.90
5779;DHT22;2916;49.798;10.022;2024-03-02T03:16:21;6.20;99.90
5779;DHT22;2916;49.798;10.022;2024-03-02T03:18:48;6.20;99.90
5779;DHT22;2916;49.798;10.022;2024-03-02T03:21:17;6.20;99.90
5779;DHT22;2916;49.798;10.022;2024-03-02T03:23:44;6.00;99.90
5779;DHT22;2916;49.798;10.022;2024-03-02T03:26:11;6.00;99.90
5779;DHT22;2916;49.798;10.022;2024-03-02T03:28:38;6.10;99.90
5779;DHT22;2916;49.798;10.022;2024-03-02T03:31:06;6.00;99.90
5779;DHT22;2916;49.798;10.022;2024-03-02T03:33:33;6.00;99.90
5779;DHT22;2916;49.798;10.022;2024-03-02T03:36:01;6.00;99.90
5779;DHT22;2916;49.798;10.022;2024-03-02T03:38:29;6.00;99.90
5779;DHT22;2916;49.798;10.022;2024-03-02T03:40:55;6.00;99.90
5779;DHT22;2916;49.798;10.022;2024-03-02T03:43:22;5.90;99.90
5779;DHT22;2916;49.798;10.022;2024-03-02T03:45:49;5.90;99.90
5779;DHT22;2916;49.798;10.022;2024-03-02T03:48:18;6.00;99.90
5779;DHT22;2916;49.798;10.022;2024-03-02T03:50:45;6.00;99.90
5779;DHT22;2916;49.798;10.022;2024-03-02T03:53:12;5.90;99.90
5779;DHT22;2916;49.798;10.022;2024-03-02T03:55:40;5.90;99.90
5779;DHT22;2916;49.798;10.022;2024-03-02T03:58:07;6.00;99.90
5779;DHT22;2916;49.798;10.022;2024-03-02T04:00:34;6.00;99.90
5779;DHT22;2916;49.798;10.022;2024-03-02T04:03:01;6.00;99.90
5779;DHT22;2916;49.798;10.022;2024-03-02T04:05:29;5.90;99.90
5779;DHT22;2916;49.798;10.022;2024-03-02T04:07:56;5.90;99.90
5779;DHT22;2916;49.798;10.022;2024-03-02T04:10:23;5.90;99.90
5779;DHT22;2916;49.798;10.022;2024-03-02T04:12:50;6.00;99.90
5779;DHT22;2916;49.798;10.022;2024-03-02T04:15:17;5.90;99.90
5779;DHT22;2916;49.798;10.022;2024-03-02T04:17:45;5.80;99.90
5779;DHT22;2916;49.798;10.022;2024-03-02T04:20:12;5.80;99.90
5779;DHT22;2916;49.798;10.022;2024-03-02T04:22:40;5.80;99.90
5779;DHT22;2916;49.798;10.022;2024-03-02T04:25:08;5.70;99.90
5779;DHT22;2916;49.798;10.022;2024-03-02T04:27:35;5.70;99.90
5779;DHT22;2916;49.798;10.022;2024-03-02T04:30:03;5.60;99.90
5779;DHT22;2916;49.798;10.022;2024-03-02T04:32:30;5.70;99.90
5779;DHT22;2916;49.798;10.022;2024-03-02T04:34:58;5.60;99.90
5779;DHT22;2916;49.798;10.022;2024-03-02T04:37:24;5.70;99.90
5779;DHT22;2916;49.798;10.022;2024-03-02T04:39:53;5.60;99.90
5779;DHT22;2916;49.798;10.022;2024-03-02T04:42:20;5.60;99.90
5779;DHT22;2916;49.798;10.022;2024-03-02T04:44:48;5.50;99.90
5779;DHT22;2916;49.798;10.022;2024-03-02T04:47:15;5.50;99.90
5779;DHT22;2916;49.798;10.022;2024-03-02T04:49:41;5.50;99.90
5779;DHT22;2916;49.798;10.022;2024-03-02T04:52:09;5.40;99.90
5779;DHT22;2916;49.798;10.022;2024-03-02T04:54:35;5.50;99.90
5779;DHT22;2916;49.798;10.022;2024-03-02T04:57:24;5.50;99.90
5779;DHT22;2916;49.798;10.022;2024-03-02T04:59:51;5.40;99.90
5779;DHT22;2916;49.798;10.022;2024-03-02T05:02:18;5.40;99.90
5779;DHT22;2916;49.798;10.022;2024-03-02T05:04:45;5.40;99.90
5779;DHT22;2916;49.798;10.022;2024-03-02T05:07:13;5.40;99.90
5779;DHT22;2916;49.798;10.022;2024-03-02T05:09:40;5.40;99.90
5779;DHT22;2916;49.798;10.022;2024-03-02T05:12:08;5.40;99.90
5779;DHT22;2916;49.798;10.022;2024-03-02T05:15:14;5.40;99.90
5779;DHT22;2916;49.798;10.022;2024-03-02T05:17:42;5.40;99.90
5779;DHT22;2916;49.798;10.022;2024-03-02T05:20:09;5.40;99.90
5779;DHT22;2916;49.798;10.022;2024-03-02T05:22:37;5.50;99.90
5779;DHT22;2916;49.798;10.022;2024-03-02T05:25:07;5.50;99.90
5779;DHT22;2916;49.798;10.022;2024-03-02T05:27:35;5.40;99.90
5779;DHT22;2916;49.798;10.022;2024-03-02T05:30:02;5.40;99.90
5779;DHT22;2916;49.798;10.022;2024-03-02T05:32:33;5.40;99.90
5779;DHT22;2916;49.798;10.022;2024-03-02T05:35:00;5.30;99.90
5779;DHT22;2916;49.798;10.022;2024-03-02T05:37:28;5.20;99.90
5779;DHT22;2916;49.798;10.022;2024-03-02T05:39:55;5.20;99.90
5779;DHT22;2916;49.798;10.022;2024-03-02T05:42:22;5.20;99.90
5779;DHT22;2916;49.798;10.022;2024-03-02T05:44:49;5.10;99.90
5779;DHT22;2916;49.798;10.022;2024-03-02T05:47:16;5.10;99.90
5779;DHT22;2916;49.798;10.022;2024-03-02T05:49:44;5.10;99.90
5779;DHT22;2916;49.798;10.022;2024-03-02T05:52:11;5.10;99.90
5779;DHT22;2916;49.798;10.022;2024-03-02T05:54:38;5.00;99.90
5779;DHT22;2916;49.798;10.022;2024-03-02T05:57:05;5.00;99.90
5779;DHT22;2916;49.798;10.022;2024-03-02T05:59:53;4.90;99.90
5779;DHT22;2916;49.798;10.022;2024-03-02T06:02:20;4.90;99.90
5779;DHT22;2916;49.798;10.022;2024-03-02T06:04:48;4.90;99.90
5779;DHT22;2916;49.798;10.022;2024-03-02T06:07:15;4.90;99.90
5779;DHT22;2916;49.798;10.022;2024-03-02T06:09:42;4.90;99.90
5779;DHT22;2916;49.798;10.022;2024-03-02T06:12:10;4.90;99.90
5779;DHT22;2916;49.798;10.022;2024-03-02T06:14:37;4.90;99.90
5779;DHT22;2916;49.798;10.022;2024-03-02T06:17:04;4.90;99.90
5779;DHT22;2916;49.798;10.022;2024-03-02T06:19:31;4.90;99.90
5779;DHT22;2916;49.798;10.022;2024-03-02T06:21:59;4.90;99.90
5779;DHT22;2916;49.798;10.022;2024-03-02T06:24:26;5.00;99.90
5779;DHT22;2916;49.798;10.022;2024-03-02T06:26:53;5.00;99.90
5779;DHT22;2916;49.798;10.022;2024-03-02T06:29:19;5.00;99.90
5779;DHT22;2916;49.798;10.022;2024-03-02T06:31:47;5.10;99.90
5779;DHT22;2916;49.798;10.022;2024-03-02T06:34:14;5.20;99.90
5779;DHT22;2916;49.798;10.022;2024-03-02T06:36:41;5.20;99.90
5779;DHT22;2916;49.798;10.022;2024-03-02T06:39:09;5.20;99.90
5779;DHT22;2916;49.798;10.022;2024-03-02T06:41:38;5.30;99.90
5779;DHT22;2916;49.798;10.022;2024-03-02T06:44:05;5.30;99.90
5779;DHT22;2916;49.798;10.022;2024-03-02T06:46:32;5.30;99.90
5779;DHT22;2916;49.798;10.022;2024-03-02T06:48:59;5.40;99.90
5779;DHT22;2916;49.798;10.022;2024-03-02T06:51:28;5.50;99.90
5779;DHT22;2916;49.798;10.022;2024-03-02T06:53:54;5.50;99.90
5779;DHT22;2916;49.798;10.022;2024-03-02T06:56:23;5.60;99.90
5779;DHT22;2916;49.798;10.022;2024-03-02T06:58:50;5.80;99.90
5779;DHT22;2916;49.798;10.022;2024-03-02T07:01:17;5.70;99.90
5779;DHT22;2916;49.798;10.022;2024-03-02T07:03:45;5.90;99.90
5779;DHT22;2916;49.798;10.022;2024-03-02T07:06:12;5.90;99.90
5779;DHT22;2916;49.798;10.022;2024-03-02T07:08:39;5.90;99.90
5779;DHT22;2916;49.798;10.022;2024-03-02T07:11:06;6.00;99.90
5779;DHT22;2916;49.798;10.022;2024-03-02T07:13:34;6.10;99.90
5779;DHT22;2916;49.798;10.022;2024-03-02T07:16:01;6.20;99.90
5779;DHT22;2916;49.798;10.022;2024-03-02T07:18:45;6.30;99.90
5779;DHT22;2916;49.798;10.022;2024-03-02T07:21:17;6.30;99.90
5779;DHT22;2916;49.798;10.022;2024-03-02T07:23:44;6.40;99.90
5779;DHT22;2916;49.798;10.022;2024-03-02T07:26:11;6.50;99.90
5779;DHT22;2916;49.798;10.022;2024-03-02T07:28:39;6.50;99.90
5779;DHT22;2916;49.798;10.022;2024-03-02T07:31:09;6.50;99.90
5779;DHT22;2916;49.798;10.022;2024-03-02T07:33:36;6.60;99.90
5779;DHT22;2916;49.798;10.022;2024-03-02T07:36:04;6.60;99.90
5779;DHT22;2916;49.798;10.022;2024-03-02T07:38:31;6.70;99.90
5779;DHT22;2916;49.798;10.022;2024-03-02T07:40:59;6.70;99.90
5779;DHT22;2916;49.798;10.022;2024-03-02T07:43:27;6.70;99.90
5779;DHT22;2916;49.798;10.022;2024-03-02T07:45:55;6.80;99.90
5779;DHT22;2916;49.798;10.022;2024-03-02T07:48:22;6.80;99.90
5779;DHT22;2916;49.798;10.022;2024-03-02T07:50:49;6.80;99.90
5779;DHT22;2916;49.798;10.022;2024-03-02T07:53:16;6.90;99.90
5779;DHT22;2916;49.798;10.022;2024-03-02T07:55:43;6.90;99.90
5779;DHT22;2916;49.798;10.022;2024-03-02T07:58:10;6.90;99.90
5779;DHT22;2916;49.798;10.022;2024-03-02T08:00:38;6.90;99.90
5779;DHT22;2916;49.798;10.022;2024-03-02T08:03:07;7.00;99.90
5779;DHT22;2916;49.798;10.022;2024-03-02T08:05:36;7.00;99.90
5779;DHT22;2916;49.798;10.022;2024-03-02T08:08:04;7.00;99.90
5779;DHT22;2916;49.798;10.022;2024-03-02T08:10:31;7.20;99.90
5779;DHT22;2916;49.798;10.022;2024-03-02T08:12:59;7.20;99.90
5779;DHT22;2916;49.798;10.022;2024-03-02T08:15:26;7.30;99.90
5779;DHT22;2916;49.798;10.022;2024-03-02T08:17:53;7.30;98.90
5779;DHT22;2916;49.798;10.022;2024-03-02T08:20:21;7.40;98.00
5779;DHT22;2916;49.798;10.022;2024-03-02T08:22:48;7.50;99.30
5779;DHT22;2916;49.798;10.022;2024-03-02T08:25:15;7.70;94.20
5779;DHT22;2916;49.798;10.022;2024-03-02T08:27:42;7.80;90.40
5779;DHT22;2916;49.798;10.022;2024-03-02T08:30:11;7.80;86.00
5779;DHT22;2916;49.798;10.022;2024-03-02T08:32:38;7.80;84.90
5779;DHT22;2916;49.798;10.022;2024-03-02T08:35:06;7.90;79.70
5779;DHT22;2916;49.798;10.022;2024-03-02T08:37:37;8.00;80.80
5779;DHT22;2916;49.798;10.022;2024-03-02T08:40:06;8.00;74.50
5779;DHT22;2916;49.798;10.022;2024-03-02T08:42:34;8.00;74.00
5779;DHT22;2916;49.798;10.022;2024-03-02T08:45:01;8.10;71.00
5779;DHT22;2916;49.798;10.022;2024-03-02T08:47:28;8.20;67.60
5779;DHT22;2916;49.798;10.022;2024-03-02T08:49:54;8.20;64.60
5779;DHT22;2916;49.798;10.022;2024-03-02T08:52:21;8.20;60.50
5779;DHT22;2916;49.798;10.022;2024-03-02T08:54:50;8.30;59.40
5779;DHT22;2916;49.798;10.022;2024-03-02T08:57:17;8.30;58.00
5779;DHT22;2916;49.798;10.022;2024-03-02T08:59:44;8.50;58.10
5779;DHT22;2916;49.798;10.022;2024-03-02T09:02:11;8.60;49.80
5779;DHT22;2916;49.798;10.022;2024-03-02T09:04:38;8.60;48.50
5779;DHT22;2916;49.798;10.022;2024-03-02T09:07:05;8.80;49.20
5779;DHT22;2916;49.798;10.022;2024-03-02T09:09:32;8.80;42.50
5779;DHT22;2916;49.798;10.022;2024-03-02T09:12:01;9.00;39.70
5779;DHT22;2916;49.798;10.022;2024-03-02T09:14:28;9.00;34.20
5779;DHT22;2916;49.798;10.022;2024-03-02T09:16:55;9.10;28.40
5779;DHT22;2916;49.798;10.022;2024-03-02T09:19:22;9.10;30.20
5779;DHT22;2916;49.798;10.022;2024-03-02T09:21:49;9.20;30.00
5779;DHT22;2916;49.798;10.022;2024-03-02T09:24:16;9.30;27.80
5779;DHT22;2916;49.798;10.022;2024-03-02T09:26:43;9.40;25.20
5779;DHT22;2916;49.798;10.022;2024-03-02T09:29:11;9.50;19.20
5779;DHT22;2916;49.798;10.022;2024-03-02T09:31:39;9.60;18.30
5779;DHT22;2916;49.798;10.022;2024-03-02T09:34:06;9.80;15.20
5779;DHT22;2916;49.798;10.022;2024-03-02T09:36:33;9.80;7.80
5779;DHT22;2916;49.798;10.022;2024-03-02T09:39:00;9.70;9.70
5779;DHT22;2916;49.798;10.022;2024-03-02T09:41:29;9.80;9.10
5779;DHT22;2916;49.798;10.022;2024-03-02T09:43:56;9.70;11.00
5779;DHT22;2916;49.798;10.022;2024-03-02T09:46:25;9.80;11.70
5779;DHT22;2916;49.798;10.022;2024-03-02T09:48:52;9.90;8.80
5779;DHT22;2916;49.798;10.022;2024-03-02T09:51:20;10.00;1.00
5779;DHT22;2916;49.798;10.022;2024-03-02T09:53:47;10.00;1.00
5779;DHT22;2916;49.798;10.022;2024-03-02T09:56:15;9.90;1.00
5779;DHT22;2916;49.798;10.022;2024-03-02T09:58:44;10.00;2.40
5779;DHT22;2916;49.798;10.022;2024-03-02T10:01:11;10.10;1.00
5779;DHT22;2916;49.798;10.022;2024-03-02T10:03:39;10.20;1.00
5779;DHT22;2916;49.798;10.022;2024-03-02T10:06:19;10.30;1.00
5779;DHT22;2916;49.798;10.022;2024-03-02T10:08:46;10.30;1.00
5779;DHT22;2916;49.798;10.022;2024-03-02T10:11:26;10.30;1.00
5779;DHT22;2916;49.798;10.022;2024-03-02T10:14:04;10.30;1.00
5779;DHT22;2916;49.798;10.022;2024-03-02T10:16:34;10.40;1.00
5779;DHT22;2916;49.798;10.022;2024-03-02T10:19:17;10.40;1.00
5779;DHT22;2916;49.798;10.022;2024-03-02T10:21:44;10.50;1.00
5779;DHT22;2916;49.798;10.022;2024-03-02T10:24:11;10.60;1.00
5779;DHT22;2916;49.798;10.022;2024-03-02T10:26:39;10.80;1.00
5779;DHT22;2916;49.798;10.022;2024-03-02T10:29:07;10.90;1.00
5779;DHT22;2916;49.798;10.022;2024-03-02T10:31:37;10.90;1.00
5779;DHT22;2916;49.798;10.022;2024-03-02T10:34:03;11.20;1.00
5779;DHT22;2916;49.798;10.022;2024-03-02T10:36:32;11.20;1.00
5779;DHT22;2916;49.798;10.022;2024-03-02T10:39:02;11.50;1.00
5779;DHT22;2916;49.798;10.022;2024-03-02T10:41:32;11.40;1.00
5779;DHT22;2916;49.798;10.022;2024-03-02T10:44:02;11.50;1.00
5779;DHT22;2916;49.798;10.022;2024-03-02T10:46:30;11.60;1.00
5779;DHT22;2916;49.798;10.022;2024-03-02T10:48:58;11.70;1.00
5779;DHT22;2916;49.798;10.022;2024-03-02T10:51:25;11.80;1.00
5779;DHT22;2916;49.798;10.022;2024-03-02T10:53:54;11.70;1.00
5779;DHT22;2916;49.798;10.022;2024-03-02T10:56:27;11.90;1.00
5779;DHT22;2916;49.798;10.022;2024-03-02T10:59:01;11.90;1.00
5779;DHT22;2916;49.798;10.022;2024-03-02T11:01:31;12.10;1.00
5779;DHT22;2916;49.798;10.022;2024-03-02T11:03:59;12.00;1.00
5779;DHT22;2916;49.798;10.022;2024-03-02T11:06:29;11.80;1.00
5779;DHT22;2916;49.798;10.022;2024-03-02T11:09:00;11.90;1.00
5779;DHT22;2916;49.798;10.022;2024-03-02T11:11:37;12.00;1.00
5779;DHT22;2916;49.798;10.022;2024-03-02T11:14:07;12.20;1.00
5779;DHT22;2916;49.798;10.022;2024-03-02T11:16:38;12.30;1.00
5779;DHT22;2916;49.798;10.022;2024-03-02T11:19:08;12.40;1.00
5779;DHT22;2916;49.798;10.022;2024-03-02T11:21:35;12.40;1.00
5779;DHT22;2916;49.798;10.022;2024-03-02T11:24:34;12.60;1.00
5779;DHT22;2916;49.798;10.022;2024-03-02T11:27:02;12.60;1.00
5779;DHT22;2916;49.798;10.022;2024-03-02T11:29:45;12.70;1.00
5779;DHT22;2916;49.798;10.022;2024-03-02T11:32:19;12.80;1.00
5779;DHT22;2916;49.798;10.022;2024-03-02T11:34:48;12.90;1.00
5779;DHT22;2916;49.798;10.022;2024-03-02T11:37:17;12.90;1.00
5779;DHT22;2916;49.798;10.022;2024-03-02T11:39:46;12.90;1.00
5779;DHT22;2916;49.798;10.022;2024-03-02T11:42:14;13.00;1.00
5779;DHT22;2916;49.798;10.022;2024-03-02T11:44:43;13.10;1.00
5779;DHT22;2916;49.798;10.022;2024-03-02T11:47:12;12.80;1.00
5779;DHT22;2916;49.798;10.022;2024-03-02T11:49:44;13.20;1.00
5779;DHT22;2916;49.798;10.022;2024-03-02T11:52:12;13.20;1.00
5779;DHT22;2916;49.798;10.022;2024-03-02T11:54:41;13.10;1.00
5779;DHT22;2916;49.798;10.022;2024-03-02T11:57:14;13.00;1.00
5779;DHT22;2916;49.798;10.022;2024-03-02T11:59:42;13.50;1.00
5779;DHT22;2916;49.798;10.022;2024-03-02T12:02:15;13.50;1.00
5779;DHT22;2916;49.798;10.022;2024-03-02T12:04:42;13.50;1.00
5779;DHT22;2916;49.798;10.022;2024-03-02T12:07:10;13.80;1.00
5779;DHT22;2916;49.798;10.022;2024-03-02T12:09:37;13.90;1.00
5779;DHT22;2916;49.798;10.022;2024-03-02T12:12:05;14.10;1.00
5779;DHT22;2916;49.798;10.022;2024-03-02T12:14:35;13.80;1.00
5779;DHT22;2916;49.798;10.022;2024-03-02T12:17:02;13.80;1.00
5779;DHT22;2916;49.798;10.022;2024-03-02T12:19:30;13.50;1.00
5779;DHT22;2916;49.798;10.022;2024-03-02T12:21:57;13.60;1.00
5779;DHT22;2916;49.798;10.022;2024-03-02T12:24:26;13.30;1.00
5779;DHT22;2916;49.798;10.022;2024-03-02T12:26:54;13.50;1.00
5779;DHT22;2916;49.798;10.022;2024-03-02T12:29:21;13.70;1.00
5779;DHT22;2916;49.798;10.022;2024-03-02T12:31:51;13.90;1.00
5779;DHT22;2916;49.798;10.022;2024-03-02T12:34:19;13.80;1.00
5779;DHT22;2916;49.798;10.022;2024-03-02T12:36:46;13.80;1.00
5779;DHT22;2916;49.798;10.022;2024-03-02T12:39:16;13.70;1.00
5779;DHT22;2916;49.798;10.022;2024-03-02T12:41:43;13.80;1.00
5779;DHT22;2916;49.798;10.022;2024-03-02T12:44:10;13.90;1.00
5779;DHT22;2916;49.798;10.022;2024-03-02T12:46:37;13.70;1.00
5779;DHT22;2916;49.798;10.022;2024-03-02T12:49:10;13.80;1.00
5779;DHT22;2916;49.798;10.022;2024-03-02T12:51:39;13.90;1.00
5779;DHT22;2916;49.798;10.022;2024-03-02T12:54:06;14.00;1.00
5779;DHT22;2916;49.798;10.022;2024-03-02T12:56:33;14.10;1.00
5779;DHT22;2916;49.798;10.022;2024-03-02T12:59:01;14.20;1.00
5779;DHT22;2916;49.798;10.022;2024-03-02T13:01:28;14.20;1.00
5779;DHT22;2916;49.798;10.022;2024-03-02T13:03:57;14.00;1.00
5779;DHT22;2916;49.798;10.022;2024-03-02T13:06:26;14.00;1.00
5779;DHT22;2916;49.798;10.022;2024-03-02T13:08:55;14.10;1.00
5779;DHT22;2916;49.798;10.022;2024-03-02T13:11:22;14.20;1.00
5779;DHT22;2916;49.798;10.022;2024-03-02T13:13:50;14.40;1.00
5779;DHT22;2916;49.798;10.022;2024-03-02T13:16:18;14.40;1.00
5779;DHT22;2916;49.798;10.022;2024-03-02T13:18:45;14.50;1.00
5779;DHT22;2916;49.798;10.022;2024-03-02T13:21:13;14.50;1.00
5779;DHT22;2916;49.798;10.022;2024-03-02T13:23:41;14.40;1.00
5779;DHT22;2916;49.798;10.022;2024-03-02T13:26:08;14.30;1.00
5779;DHT22;2916;49.798;10.022;2024-03-02T13:28:36;14.40;1.00
5779;DHT22;2916;49.798;10.022;2024-03-02T13:31:04;14.30;1.00
5779;DHT22;2916;49.798;10.022;2024-03-02T13:33:32;14.30;1.00
5779;DHT22;2916;49.798;10.022;2024-03-02T13:35:59;14.20;1.00
5779;DHT22;2916;49.798;10.022;2024-03-02T13:38:27;14.10;1.00
5779;DHT22;2916;49.798;10.022;2024-03-02T13:40:55;14.30;1.00
5779;DHT22;2916;49.798;10.022;2024-03-02T13:43:23;14.50;1.00
5779;DHT22;2916;49.798;10.022;2024-03-02T13:45:50;14.50;1.00
5779;DHT22;2916;49.798;10.022;2024-03-02T13:48:19;14.60;1.00
5779;DHT22;2916;49.798;10.022;2024-03-02T13:50:46;14.60;1.00
5779;DHT22;2916;49.798;10.022;2024-03-02T13:53:13;14.50;1.00
5779;DHT22;2916;49.798;10.022;2024-03-02T13:55:40;14.60;1.00
5779;DHT22;2916;49.798;10.022;2024-03-02T13:58:09;14.50;1.00
5779;DHT22;2916;49.798;10.022;2024-03-02T14:00:37;14.50;1.00
5779;DHT22;2916;49.798;10.022;2024-03-02T14:03:06;14.50;1.00
5779;DHT22;2916;49.798;10.022;2024-03-02T14:05:33;14.50;1.00
5779;DHT22;2916;49.798;10.022;2024-03-02T14:08:00;14.70;1.00
5779;DHT22;2916;49.798;10.022;2024-03-02T14:10:27;14.80;1.00
5779;DHT22;2916;49.798;10.022;2024-03-02T14:12:54;14.80;1.00
5779;DHT22;2916;49.798;10.022;2024-03-02T14:15:23;14.80;1.00
5779;DHT22;2916;49.798;10.022;2024-03-02T14:17:50;14.80;1.00
5779;DHT22;2916;49.798;10.022;2024-03-02T14:20:17;14.80;1.00
5779;DHT22;2916;49.798;10.022;2024-03-02T14:22:48;14.90;1.00
5779;DHT22;2916;49.798;10.022;2024-03-02T14:25:15;14.90;1.00
5779;DHT22;2916;49.798;10.022;2024-03-02T14:27:42;15.00;1.00
5779;DHT22;2916;49.798;10.022;2024-03-02T14:30:10;15.20;1.00
5779;DHT22;2916;49.798;10.022;2024-03-02T14:32:38;15.10;1.00
5779;DHT22;2916;49.798;10.022;2024-03-02T14:35:06;15.00;1.00
5779;DHT22;2916;49.798;10.022;2024-03-02T14:37:35;14.90;1.00
5779;DHT22;2916;49.798;10.022;2024-03-02T14:40:02;15.00;1.00
5779;DHT22;2916;49.798;10.022;2024-03-02T14:42:32;14.90;1.00
5779;DHT22;2916;49.798;10.022;2024-03-02T14:44:58;14.90;1.00
5779;DHT22;2916;49.798;10.022;2024-03-02T14:47:26;14.80;1.00
5779;DHT22;2916;49.798;10.022;2024-03-02T14:49:54;14.80;1.00
5779;DHT22;2916;49.798;10.022;2024-03-02T14:52:21;14.90;1.00
5779;DHT22;2916;49.798;10.022;2024-03-02T14:54:48;14.80;1.00
5779;DHT22;2916;49.798;10.022;2024-03-02T14:57:15;14.80;1.00
5779;DHT22;2916;49.798;10.022;2024-03-02T14:59:42;14.80;1.00
5779;DHT22;2916;49.798;10.022;2024-03-02T15:02:09;14.80;1.00
5779;DHT22;2916;49.798;10.022;2024-03-02T15:04:36;14.70;1.00
5779;DHT22;2916;49.798;10.022;2024-03-02T15:07:04;14.80;1.00
5779;DHT22;2916;49.798;10.022;2024-03-02T15:09:31;14.70;1.00
5779;DHT22;2916;49.798;10.022;2024-03-02T15:12:00;14.70;1.00
5779;DHT22;2916;49.798;10.022;2024-03-02T15:14:27;14.60;1.00
5779;DHT22;2916;49.798;10.022;2024-03-02T15:16:54;14.50;1.00
5779;DHT22;2916;49.798;10.022;2024-03-02T15:19:21;14.50;1.00
5779;DHT22;2916;49.798;10.022;2024-03-02T15:21:48;14.40;1.00
5779;DHT22;2916;49.798;10.022;2024-03-02T15:24:17;14.40;1.00
5779;DHT22;2916;49.798;10.022;2024-03-02T15:26:44;14.40;1.00
5779;DHT22;2916;49.798;10.022;2024-03-02T15:29:10;14.30;1.00
5779;DHT22;2916;49.798;10.022;2024-03-02T15:31:37;14.30;1.00
5779;DHT22;2916;49.798;10.022;2024-03-02T15:34:04;14.30;1.00
5779;DHT22;2916;49.798;10.022;2024-03-02T15:36:33;14.30;1.00
5779;DHT22;2916;49.798;10.022;2024-03-02T15:39:00;14.30;1.00
5779;DHT22;2916;49.798;10.022;2024-03-02T15:41:30;14.30;1.00
5779;DHT22;2916;49.798;10.022;2024-03-02T15:43:56;14.00;1.00
5779;DHT22;2916;49.798;10.022;2024-03-02T15:46:23;13.90;1.00
5779;DHT22;2916;49.798;10.022;2024-03-02T15:48:50;13.80;1.00
5779;DHT22;2916;49.798;10.022;2024-03-02T15:51:17;13.80;1.00
5779;DHT22;2916;49.798;10.022;2024-03-02T15:53:44;13.70;1.00
5779;DHT22;2916;49.798;10.022;2024-03-02T15:56:11;13.70;1.00
5779;DHT22;2916;49.798;10.022;2024-03-02T15:58:40;13.60;1.00
5779;DHT22;2916;49.798;10.022;2024-03-02T16:01:07;13.60;1.00
5779;DHT22;2916;49.798;10.022;2024-03-02T16:03:34;13.60;1.00
5779;DHT22;2916;49.798;10.022;2024-03-02T16:06:01;13.60;1.00
5779;DHT22;2916;49.798;10.022;2024-03-02T16:08:28;13.60;1.00